Time;durP1;ratioP1;P1;durP2;ratioP2;P2;SDS_P1;SDS_P2;PMS_P1;PMS_P2;Temp;Humidity;BMP_temperature;BMP_pressure;BME280_temperature;BME280_humidity;BME280_pressure;Samples;Min_cycle;Max_cycle;Signal;HPM_P1;HPM_P2
2024/01/25 00:01:36;;;;;;;0.75;0.40;;;;;;;9.82;75.93;93574.03;2034280;70;20707;-82
2024/01/25 00:04:01;;;;;;;0.68;0.50;;;;;;;9.83;75.71;93567.81;2031256;70;20164;-80
2024/01/25 00:06:27;;;;;;;1.85;0.70;;;;;;;9.75;76.37;93552.38;2034916;70;20228;-81
2024/01/25 00:08:53;;;;;;;1.35;0.52;;;;;;;9.69;76.34;93535.78;2031115;70;20156;-80
2024/01/25 00:11:18;;;;;;;1.23;0.60;;;;;;;9.69;76.17;93555.47;2034548;70;20156;-81
2024/01/25 00:13:44;;;;;;;2.63;0.50;;;;;;;9.73;76.04;93538.19;2035099;70;20653;-81
2024/01/25 00:16:10;;;;;;;1.90;1.13;;;;;;;9.55;76.34;93531.88;2034602;70;20174;-80
2024/01/25 00:18:36;;;;;;;1.60;1.13;;;;;;;9.62;76.19;93547.88;2037505;70;20616;-81
2024/01/25 00:21:01;;;;;;;4.85;2.13;;;;;;;9.38;76.15;93541.09;2035332;70;20235;-80
2024/01/25 00:23:27;;;;;;;2.88;1.20;;;;;;;9.08;78.04;93536.66;2031908;70;20168;-83
2024/01/25 00:25:53;;;;;;;3.60;1.50;;;;;;;9.42;76.23;93544.97;2035050;70;20164;-80
2024/01/25 00:28:19;;;;;;;3.88;1.50;;;;;;;9.28;76.45;93546.69;2035168;70;20136;-79
2024/01/25 00:30:44;;;;;;;4.07;1.80;;;;;;;9.40;76.19;93553.25;2035169;70;20248;-79
2024/01/25 00:33:10;;;;;;;2.85;1.65;;;;;;;9.43;76.12;93557.69;2035058;70;20152;-80
2024/01/25 00:35:36;;;;;;;2.90;1.63;;;;;;;9.50;75.58;93578.59;2035138;70;20532;-80
2024/01/25 00:38:01;;;;;;;2.55;1.05;;;;;;;9.04;77.67;93584.81;2035152;70;20270;-79
2024/01/25 00:40:27;;;;;;;1.88;1.10;;;;;;;9.26;76.64;93588.69;2033617;70;20252;-79
2024/01/25 00:42:53;;;;;;;2.20;1.05;;;;;;;9.27;76.69;93595.03;2031606;70;20542;-80
2024/01/25 00:45:24;;;;;;;2.30;1.10;;;;;;;9.19;77.83;93588.75;2031227;70;20144;-79
2024/01/25 00:47:50;;;;;;;3.83;0.80;;;;;;;9.27;77.85;93607.00;2031411;70;20141;-80
2024/01/25 00:50:17;;;;;;;1.58;0.70;;;;;;;9.39;77.43;93610.81;2031452;70;20179;-80
2024/01/25 00:52:44;;;;;;;1.63;0.90;;;;;;;9.25;78.42;93623.69;2031106;70;20197;-80
2024/01/25 00:55:11;;;;;;;3.08;0.80;;;;;;;9.32;77.87;93611.63;2031498;70;20517;-80
2024/01/25 00:57:37;;;;;;;0.80;0.75;;;;;;;9.47;77.49;93630.34;2030767;70;20144;-80
2024/01/25 01:00:04;;;;;;;1.15;0.90;;;;;;;9.53;77.32;93614.00;2031400;70;20163;-78
2024/01/25 01:02:35;;;;;;;1.88;0.60;;;;;;;9.54;77.29;93600.69;2031602;70;20137;-79
2024/01/25 01:05:01;;;;;;;1.33;0.90;;;;;;;9.47;77.66;93601.50;2033639;70;20179;-79
2024/01/25 01:07:26;;;;;;;2.28;1.02;;;;;;;9.34;78.49;93586.47;2031426;70;20144;-79
2024/01/25 01:09:52;;;;;;;2.35;0.70;;;;;;;9.37;78.10;93576.91;2031658;70;20573;-78
2024/01/25 01:12:19;;;;;;;0.80;0.60;;;;;;;9.36;79.20;93575.41;2034148;70;20160;-78
2024/01/25 01:14:45;;;;;;;1.35;0.77;;;;;;;9.23;79.19;93581.41;2029352;70;20179;-79
2024/01/25 01:17:11;;;;;;;1.65;1.15;;;;;;;8.99;81.93;93587.88;2031414;70;20672;-79
2024/01/25 01:19:36;;;;;;;2.03;1.30;;;;;;;9.25;79.91;93587.16;2030590;70;20149;-80
2024/01/25 01:22:02;;;;;;;4.40;2.33;;;;;;;9.32;79.45;93583.53;2031394;70;20222;-78
2024/01/25 01:24:28;;;;;;;3.67;2.10;;;;;;;9.38;78.87;93584.00;2031254;70;20164;-81
2024/01/25 01:26:53;;;;;;;4.40;2.03;;;;;;;9.15;80.53;93559.00;2028098;70;20144;-80
2024/01/25 01:29:19;;;;;;;5.93;3.20;;;;;;;9.16;80.69;93557.72;2031237;70;20156;-79
2024/01/25 01:31:45;;;;;;;6.93;3.03;;;;;;;9.22;80.23;93545.47;2027614;70;20152;-79
2024/01/25 01:34:12;;;;;;;5.82;2.78;;;;;;;9.20;80.05;93525.63;2031371;70;20144;-79
2024/01/25 01:36:38;;;;;;;4.43;2.10;;;;;;;9.26;78.99;93512.06;2031449;70;20619;-80
2024/01/25 01:39:07;;;;;;;4.15;2.30;;;;;;;9.08;80.37;93489.66;2031364;70;20164;-79
2024/01/25 01:41:32;;;;;;;4.32;2.40;;;;;;;8.84;80.92;93508.13;2031249;70;20275;-80
2024/01/25 01:43:58;;;;;;;4.72;2.10;;;;;;;8.99;79.65;93510.00;2031494;70;20160;-79
2024/01/25 01:46:30;;;;;;;3.20;1.77;;;;;;;9.07;78.63;93498.63;2031358;70;20623;-79
2024/01/25 01:48:56;;;;;;;1.85;0.95;;;;;;;8.82;80.43;93493.91;2031025;70;20159;-79
2024/01/25 01:51:22;;;;;;;0.63;0.55;;;;;;;8.89;80.46;93492.34;2031371;70;20164;-79
2024/01/25 01:53:47;;;;;;;2.33;1.10;;;;;;;7.90;84.70;93502.53;2031373;70;20152;-81
2024/01/25 01:56:14;;;;;;;1.83;1.08;;;;;;;8.48;81.76;93528.38;2031012;70;20140;-80
2024/01/25 01:58:40;;;;;;;2.08;1.30;;;;;;;8.56;81.04;93519.84;2033060;70;20148;-80
2024/01/25 02:01:06;;;;;;;3.22;1.10;;;;;;;7.92;85.16;93538.41;2034600;70;20144;-80
2024/01/25 02:03:31;;;;;;;2.42;0.80;;;;;;;8.33;83.18;93531.28;2030731;70;20270;-79
2024/01/25 02:06:02;;;;;;;1.63;0.70;;;;;;;8.15;85.30;93528.50;2030222;70;20183;-80
2024/01/25 02:08:31;;;;;;;0.80;0.77;;;;;;;8.22;86.78;93534.59;2030500;70;20144;-80
2024/01/25 02:10:57;;;;;;;1.38;0.90;;;;;;;8.52;85.26;93523.09;2031274;70;20152;-79
2024/01/25 02:13:22;;;;;;;1.88;0.60;;;;;;;8.78;83.36;93530.06;2027918;70;20129;-79
2024/01/25 02:15:48;;;;;;;0.65;0.60;;;;;;;8.80;83.18;93521.84;2030726;70;20149;-78
2024/01/25 02:18:14;;;;;;;1.35;0.63;;;;;;;8.90;82.14;93541.56;2031332;70;20160;-80
2024/01/25 02:20:41;;;;;;;0.80;0.70;;;;;;;8.93;82.20;93548.81;2031216;70;20597;-79
2024/01/25 02:23:07;;;;;;;1.67;0.65;;;;;;;8.85;82.18;93550.97;2031094;70;20216;-78
2024/01/25 02:25:33;;;;;;;1.40;0.50;;;;;;;8.82;82.66;93560.56;2031047;70;20148;-77
2024/01/25 02:27:58;;;;;;;1.30;0.73;;;;;;;8.59;84.74;93569.22;2031102;70;20152;-77
2024/01/25 02:30:24;;;;;;;1.75;0.80;;;;;;;8.73;83.54;93561.97;2027751;70;20152;-77
2024/01/25 02:32:50;;;;;;;2.60;0.70;;;;;;;8.93;82.29;93568.47;2030493;70;20156;-78
2024/01/25 02:35:15;;;;;;;1.25;0.63;;;;;;;8.96;81.95;93560.94;2030635;70;20196;-78
2024/01/25 02:37:41;;;;;;;1.17;0.60;;;;;;;8.98;82.00;93564.69;2030798;70;20153;-79
2024/01/25 02:40:07;;;;;;;2.55;0.80;;;;;;;8.81;82.20;93567.50;2028836;70;20163;-78
2024/01/25 02:42:33;;;;;;;1.70;0.82;;;;;;;8.61;83.03;93558.16;2034319;70;20178;-78
2024/01/25 02:44:58;;;;;;;2.60;1.08;;;;;;;8.70;83.41;93565.91;2031316;70;20604;-78
2024/01/25 02:47:24;;;;;;;1.33;0.93;;;;;;;8.77;82.65;93562.28;2034379;70;20146;-77
2024/01/25 02:49:50;;;;;;;2.20;1.15;;;;;;;8.81;82.51;93557.00;2034970;70;20144;-80
2024/01/25 02:52:15;;;;;;;1.60;0.93;;;;;;;8.88;81.95;93541.38;2034919;70;20144;-78
2024/01/25 02:54:41;;;;;;;3.60;0.80;;;;;;;8.97;82.16;93549.13;2033033;70;20640;-80
2024/01/25 02:57:06;;;;;;;1.38;0.90;;;;;;;8.69;81.95;93544.03;2031682;70;20137;-79
2024/01/25 02:59:32;;;;;;;1.10;0.88;;;;;;;8.78;81.91;93543.38;2031477;70;20162;-80
2024/01/25 03:01:58;;;;;;;1.40;0.85;;;;;;;8.72;81.61;93529.59;2031756;70;20144;-79
2024/01/25 03:04:23;;;;;;;1.80;1.00;;;;;;;8.76;81.33;93510.28;2033143;70;20167;-80
2024/01/25 03:06:49;;;;;;;0.80;0.70;;;;;;;8.43;82.36;93506.16;2035001;70;20145;-80
2024/01/25 03:09:15;;;;;;;0.88;0.68;;;;;;;8.42;83.28;93527.13;2031822;70;20512;-79
2024/01/25 03:11:41;;;;;;;1.55;1.00;;;;;;;8.48;83.00;93536.06;2034892;70;20292;-79
2024/01/25 03:14:07;;;;;;;1.95;1.00;;;;;;;8.59;82.09;93539.09;2034934;70;20634;-78
2024/01/25 03:16:33;;;;;;;1.63;0.90;;;;;;;8.66;81.48;93548.75;2035042;70;20140;-77
2024/01/25 03:18:58;;;;;;;2.00;0.80;;;;;;;8.69;81.27;93553.19;2035972;70;20179;-78
2024/01/25 03:21:24;;;;;;;2.38;0.82;;;;;;;8.71;81.36;93544.97;2037669;70;20156;-78
2024/01/25 03:23:49;;;;;;;5.32;1.10;;;;;;;8.36;82.76;93558.97;2037399;70;20683;-79
2024/01/25 03:26:15;;;;;;;1.17;0.90;;;;;;;8.39;83.81;93580.28;2034782;70;20160;-80
2024/01/25 03:28:41;;;;;;;1.00;0.90;;;;;;;8.59;82.38;93578.38;2034869;70;20158;-79
2024/01/25 03:31:07;;;;;;;1.13;0.90;;;;;;;8.57;82.52;93569.81;2034893;70;20159;-81
2024/01/25 03:33:34;;;;;;;1.05;0.90;;;;;;;8.32;83.54;93580.31;2031563;70;20616;-79
2024/01/25 03:36:04;;;;;;;3.40;1.10;;;;;;;7.89;88.61;93569.09;2034806;70;20284;-78
2024/01/25 03:38:30;;;;;;;1.45;0.90;;;;;;;8.24;87.64;93574.03;2034831;70;20140;-79
2024/01/25 03:40:58;;;;;;;1.60;1.00;;;;;;;8.42;86.94;93577.63;2034651;70;20160;-80
2024/01/25 03:43:24;;;;;;;1.67;1.00;;;;;;;8.38;87.58;93569.63;2031218;70;20638;-79
2024/01/25 03:45:49;;;;;;;2.08;1.20;;;;;;;8.30;87.39;93572.47;2028516;70;20232;-78
2024/01/25 03:48:15;;;;;;;1.75;1.05;;;;;;;8.58;86.24;93579.72;2033800;70;20244;-79
2024/01/25 03:50:41;;;;;;;1.65;0.70;;;;;;;8.71;83.47;93561.06;2032044;70;20236;-79
2024/01/25 03:53:07;;;;;;;3.42;1.10;;;;;;;8.33;86.47;93542.50;2032040;70;20268;-79
2024/01/25 03:55:32;;;;;;;3.20;1.33;;;;;;;8.38;86.54;93567.56;2037562;70;20264;-78
2024/01/25 03:57:58;;;;;;;2.45;1.30;;;;;;;8.56;85.01;93553.53;2038847;70;20160;-78
2024/01/25 04:00:24;;;;;;;1.92;1.70;;;;;;;8.38;85.31;93542.31;2038521;70;20139;-78
2024/01/25 04:02:50;;;;;;;3.25;1.55;;;;;;;8.53;85.26;93535.06;2035353;70;20162;-79
2024/01/25 04:05:16;;;;;;;2.75;1.58;;;;;;;8.68;84.98;93532.06;2033497;70;20160;-80
2024/01/25 04:07:42;;;;;;;1.25;1.10;;;;;;;8.82;84.25;93527.59;2032059;70;20346;-78
2024/01/25 04:10:07;;;;;;;2.30;1.33;;;;;;;8.77;83.72;93520.19;2031965;70;20164;-79
2024/01/25 04:12:33;;;;;;;1.58;1.08;;;;;;;8.76;84.07;93520.75;2031380;70;20596;-78
2024/01/25 04:14:59;;;;;;;1.90;1.40;;;;;;;8.74;84.20;93512.91;2033986;70;20239;-78
2024/01/25 04:17:25;;;;;;;1.98;1.80;;;;;;;8.36;85.67;93511.28;2035281;70;20187;-78
2024/01/25 04:19:50;;;;;;;3.13;1.67;;;;;;;8.59;85.45;93513.81;2035255;70;20604;-79
2024/01/25 04:22:16;;;;;;;2.03;1.50;;;;;;;8.52;85.34;93517.47;2035335;70;20160;-79
2024/01/25 04:24:43;;;;;;;1.90;1.70;;;;;;;7.98;89.11;93522.84;2035216;70;20164;-79
2024/01/25 04:27:08;;;;;;;2.50;2.10;;;;;;;7.70;93.13;93514.84;2035157;70;20160;-79
2024/01/25 04:29:34;;;;;;;1.90;1.70;;;;;;;8.19;91.24;93522.44;2035213;70;20239;-78
2024/01/25 04:32:00;;;;;;;2.45;2.25;;;;;;;7.77;92.29;93528.06;2035159;70;20152;-79
2024/01/25 04:34:25;;;;;;;3.05;2.47;;;;;;;8.00;91.54;93536.28;2035162;70;20168;-78
2024/01/25 04:36:51;;;;;;;2.47;1.92;;;;;;;8.19;90.78;93542.09;2035304;70;20162;-79
2024/01/25 04:39:16;;;;;;;3.00;2.70;;;;;;;7.66;92.02;93548.16;2035132;70;20696;-78
2024/01/25 04:41:42;;;;;;;3.63;3.13;;;;;;;7.52;93.50;93559.66;2030926;70;20194;-78
2024/01/25 04:44:08;;;;;;;3.65;3.08;;;;;;;7.81;93.25;93557.19;2031473;70;20152;-78
2024/01/25 04:46:36;;;;;;;5.80;4.32;;;;;;;7.30;94.59;93568.94;2031456;70;20187;-78
2024/01/25 04:49:02;;;;;;;14.82;4.18;;;;;;;7.66;92.02;93588.13;2031531;70;20171;-78
2024/01/25 04:51:28;;;;;;;26.33;5.22;;;;;;;7.12;94.84;93598.91;2031513;70;20698;-78
2024/01/25 04:53:53;;;;;;;4.85;3.83;;;;;;;7.05;97.18;93608.06;2031427;70;20251;-78
2024/01/25 04:56:19;;;;;;;4.15;3.45;;;;;;;7.43;95.49;93598.75;2031406;70;20152;-78
2024/01/25 04:58:45;;;;;;;4.53;3.92;;;;;;;7.09;95.50;93586.03;2031584;70;20671;-78
2024/01/25 05:01:11;;;;;;;4.07;3.58;;;;;;;7.35;95.34;93581.97;2031494;70;20659;-79
2024/01/25 05:03:38;;;;;;;3.50;3.20;;;;;;;7.89;91.58;93590.78;2031634;70;20148;-79
2024/01/25 05:06:04;;;;;;;4.65;3.00;;;;;;;7.81;90.23;93593.63;2028459;70;20164;-78
2024/01/25 05:08:29;;;;;;;2.40;2.20;;;;;;;7.88;90.28;93578.81;2034662;70;20151;-80
2024/01/25 05:10:55;;;;;;;2.47;2.25;;;;;;;7.94;89.51;93583.44;2032747;70;20174;-78
2024/01/25 05:13:20;;;;;;;2.38;1.85;;;;;;;7.70;89.05;93602.50;2031843;70;20180;-78
2024/01/25 05:15:46;;;;;;;4.85;2.47;;;;;;;7.45;91.41;93608.06;2031656;70;20524;-78
2024/01/25 05:18:12;;;;;;;2.92;2.40;;;;;;;7.92;89.37;93614.09;2031620;70;20564;-78
2024/01/25 05:20:37;;;;;;;4.25;3.63;;;;;;;7.51;90.06;93614.19;2031608;70;20184;-78
2024/01/25 05:23:04;;;;;;;7.57;4.00;;;;;;;7.41;90.78;93613.31;2028313;70;20145;-79
2024/01/25 05:25:30;;;;;;;4.00;3.28;;;;;;;7.51;90.32;93619.78;2027913;70;20252;-79
2024/01/25 05:27:56;;;;;;;2.92;2.53;;;;;;;7.77;88.11;93631.78;2031604;70;20667;-81
2024/01/25 05:30:22;;;;;;;3.50;2.40;;;;;;;7.78;88.26;93622.06;2031383;70;20631;-81
2024/01/25 05:32:51;;;;;;;4.38;2.78;;;;;;;7.87;88.43;93632.66;2031374;70;20148;-79
2024/01/25 05:35:17;;;;;;;2.45;1.92;;;;;;;7.77;87.19;93637.41;2031581;70;20608;-79
2024/01/25 05:37:43;;;;;;;1.40;1.30;;;;;;;7.84;87.76;93640.16;2030938;70;20305;-80
2024/01/25 05:40:09;;;;;;;1.40;1.30;;;;;;;8.11;86.67;93650.81;2030531;70;20172;-77
2024/01/25 05:42:36;;;;;;;2.15;1.60;;;;;;;8.05;86.02;93669.91;2034065;70;20151;-78
2024/01/25 05:45:03;;;;;;;3.03;1.55;;;;;;;8.15;85.96;93679.97;2034715;70;20168;-77
2024/01/25 05:47:29;;;;;;;2.03;1.70;;;;;;;7.79;87.07;93679.59;2034882;70;20719;-78
2024/01/25 05:49:56;;;;;;;2.47;2.00;;;;;;;7.58;87.86;93691.88;2034563;70;20144;-78
2024/01/25 05:52:22;;;;;;;4.30;2.20;;;;;;;6.88;91.34;93690.63;2037180;70;20136;-77
2024/01/25 05:54:49;;;;;;;2.80;2.10;;;;;;;7.39;91.34;93702.78;2036264;70;20152;-79
2024/01/25 05:57:15;;;;;;;4.03;2.00;;;;;;;7.41;90.20;93702.22;2034815;70;20263;-79
2024/01/25 05:59:40;;;;;;;5.20;3.47;;;;;;;7.78;87.84;93698.47;2034529;70;20172;-78
2024/01/25 06:02:07;;;;;;;3.78;2.80;;;;;;;7.94;87.02;93698.41;2034763;70;20187;-79
2024/01/25 06:04:33;;;;;;;4.40;2.58;;;;;;;8.01;86.25;93697.59;2034625;70;20236;-78
2024/01/25 06:06:58;;;;;;;6.30;3.38;;;;;;;7.40;86.99;93673.47;2034814;70;20240;-78
2024/01/25 06:09:24;;;;;;;2.55;2.13;;;;;;;7.29;89.24;93691.44;2034748;70;20239;-79
2024/01/25 06:11:51;;;;;;;3.15;2.40;;;;;;;7.81;87.52;93697.34;2034412;70;20247;-79
2024/01/25 06:14:17;;;;;;;2.25;2.05;;;;;;;7.85;86.21;93710.97;2034769;70;20694;-79
2024/01/25 06:16:44;;;;;;;3.70;1.83;;;;;;;7.52;86.56;93701.81;2034690;70;20531;-78
2024/01/25 06:19:10;;;;;;;5.90;3.10;;;;;;;7.79;86.41;93716.03;2034678;70;20177;-77
2024/01/25 06:21:37;;;;;;;2.63;1.95;;;;;;;7.64;86.40;93712.00;2031327;70;20152;-77
2024/01/25 06:24:04;;;;;;;3.90;2.35;;;;;;;7.77;86.04;93725.03;2030289;70;20203;-77
2024/01/25 06:26:30;;;;;;;4.70;3.38;;;;;;;7.53;87.49;93723.66;2034717;70;20239;-78
2024/01/25 06:28:59;;;;;;;5.40;4.20;;;;;;;7.71;85.93;93732.91;2033366;70;20604;-80
2024/01/25 06:31:25;;;;;;;3.90;2.90;;;;;;;7.55;86.65;93734.28;2034810;70;20144;-79
2024/01/25 06:33:52;;;;;;;3.40;2.72;;;;;;;7.52;87.31;93736.19;2034849;70;20176;-79
2024/01/25 06:36:19;;;;;;;4.55;3.25;;;;;;;7.67;86.47;93746.56;2034362;70;20204;-79
2024/01/25 06:38:45;;;;;;;5.03;3.25;;;;;;;7.78;85.80;93753.81;2034699;70;20228;-79
2024/01/25 06:41:11;;;;;;;4.05;3.20;;;;;;;7.85;85.15;93758.66;2034117;70;20180;-79
2024/01/25 06:43:37;;;;;;;5.18;2.65;;;;;;;7.63;85.65;93757.44;2035101;70;20183;-79
2024/01/25 06:46:02;;;;;;;4.93;3.38;;;;;;;7.62;86.62;93756.69;2031309;70;20545;-78
2024/01/25 06:48:29;;;;;;;4.10;2.90;;;;;;;7.73;85.79;93768.78;2034868;70;20155;-78
2024/01/25 06:50:54;;;;;;;4.28;2.30;;;;;;;7.80;85.30;93771.56;2034849;70;20219;-78
2024/01/25 06:53:21;;;;;;;3.70;2.65;;;;;;;7.40;86.62;93768.72;2034844;70;20160;-78
2024/01/25 06:55:47;;;;;;;5.22;2.80;;;;;;;7.43;87.69;93766.84;2031425;70;20163;-78
2024/01/25 06:58:13;;;;;;;3.40;2.45;;;;;;;7.41;87.17;93780.66;2034807;70;20223;-77
2024/01/25 07:00:41;;;;;;;3.15;2.58;;;;;;;7.17;88.75;93791.16;2034835;70;20163;-79
2024/01/25 07:03:08;;;;;;;3.97;2.55;;;;;;;7.63;86.61;93785.44;2035277;70;20155;-77
2024/01/25 07:05:35;;;;;;;3.45;2.33;;;;;;;7.73;86.07;93785.59;2034870;70;20213;-77
2024/01/25 07:08:02;;;;;;;3.10;2.22;;;;;;;7.71;85.26;93772.16;2034687;70;20156;-77
2024/01/25 07:10:28;;;;;;;4.05;2.10;;;;;;;7.72;85.19;93784.84;2034663;70;20163;-78
2024/01/25 07:12:54;;;;;;;1.65;1.45;;;;;;;7.64;85.86;93793.28;2031593;70;20148;-77
2024/01/25 07:15:20;;;;;;;2.80;1.55;;;;;;;7.92;84.89;93791.50;2034956;70;20148;-77
2024/01/25 07:17:46;;;;;;;4.13;2.10;;;;;;;7.89;83.39;93790.59;2034955;70;20151;-78
2024/01/25 07:20:12;;;;;;;6.40;3.45;;;;;;;7.80;84.87;93805.19;2034985;70;20152;-78
2024/01/25 07:22:38;;;;;;;9.25;5.85;;;;;;;7.34;86.98;93802.53;2031342;70;20179;-78
2024/01/25 07:25:05;;;;;;;9.15;5.00;;;;;;;6.88;89.34;93804.66;2034828;70;20144;-79
2024/01/25 07:27:30;;;;;;;7.70;5.45;;;;;;;7.35;88.25;93806.81;2034861;70;20176;-79
2024/01/25 07:29:56;;;;;;;10.43;6.53;;;;;;;7.22;88.48;93806.28;2034806;70;20186;-78
2024/01/25 07:32:24;;;;;;;9.43;6.70;;;;;;;7.02;88.84;93805.19;2031327;70;20144;-77
2024/01/25 07:34:50;;;;;;;8.85;6.05;;;;;;;7.18;89.00;93800.31;2034883;70;20148;-78
2024/01/25 07:37:16;;;;;;;9.05;6.45;;;;;;;7.38;87.53;93810.56;2037059;70;20619;-82
2024/01/25 07:39:41;;;;;;;9.32;7.30;;;;;;;7.32;87.60;93807.19;2034896;70;20152;-79
2024/01/25 07:42:07;;;;;;;7.82;5.75;;;;;;;7.36;87.28;93810.38;2034799;70;20703;-82
2024/01/25 07:44:33;;;;;;;8.23;5.20;;;;;;;7.14;88.05;93801.44;2034765;70;20614;-81
2024/01/25 07:46:59;;;;;;;9.55;5.97;;;;;;;7.48;87.90;93822.69;2034920;70;20140;-79
2024/01/25 07:49:26;;;;;;;9.52;5.95;;;;;;;7.32;87.87;93821.94;2034865;70;20148;-78
2024/01/25 07:51:51;;;;;;;10.02;6.88;;;;;;;7.44;87.47;93815.97;2034940;70;20512;-80
2024/01/25 07:54:17;;;;;;;8.10;6.57;;;;;;;7.40;87.76;93821.94;2034964;70;20588;-79
2024/01/25 07:56:42;;;;;;;9.02;7.10;;;;;;;7.57;87.22;93824.91;2034744;70;20160;-78
2024/01/25 07:59:08;;;;;;;12.85;6.82;;;;;;;7.75;86.54;93825.78;2034988;70;20152;-79
2024/01/25 08:01:34;;;;;;;8.27;6.68;;;;;;;7.76;85.62;93827.28;2037339;70;20152;-78
2024/01/25 08:03:59;;;;;;;8.65;6.25;;;;;;;7.58;86.20;93822.84;2037672;70;20140;-79
2024/01/25 08:06:26;;;;;;;11.45;6.80;;;;;;;7.06;88.31;93825.19;2031324;70;20160;-78
2024/01/25 08:08:52;;;;;;;7.53;5.78;;;;;;;7.40;88.71;93827.53;2031270;70;20669;-78
2024/01/25 08:11:19;;;;;;;8.32;5.22;;;;;;;7.38;87.80;93825.31;2031103;70;20182;-78
2024/01/25 08:13:46;;;;;;;6.78;4.90;;;;;;;7.63;87.23;93822.63;2031203;70;20136;-78
2024/01/25 08:16:13;;;;;;;8.63;5.35;;;;;;;7.65;86.73;93822.06;2034595;70;20179;-79
2024/01/25 08:18:43;;;;;;;8.18;5.90;;;;;;;7.66;86.50;93826.38;2034386;70;20195;-78
2024/01/25 08:21:11;;;;;;;6.97;5.20;;;;;;;7.89;85.92;93838.25;2034315;70;20196;-79
2024/01/25 08:23:37;;;;;;;8.95;5.90;;;;;;;7.96;85.44;93841.59;2034719;70;20159;-78
2024/01/25 08:26:02;;;;;;;9.30;5.95;;;;;;;7.87;85.46;93843.66;2034694;70;20164;-79
2024/01/25 08:28:28;;;;;;;7.40;5.18;;;;;;;7.78;85.48;93844.25;2034759;70;20668;-78
2024/01/25 08:30:53;;;;;;;37.10;17.92;;;;;;;7.49;86.51;93843.03;2034814;70;20583;-78
2024/01/25 08:33:19;;;;;;;69.10;26.80;;;;;;;7.53;87.53;93849.00;2034750;70;20523;-78
2024/01/25 08:35:45;;;;;;;16.75;9.05;;;;;;;7.70;86.83;93843.56;2035022;70;20542;-81
2024/01/25 08:38:11;;;;;;;18.30;9.63;;;;;;;7.95;85.81;93865.34;2036861;70;20148;-78
2024/01/25 08:40:36;;;;;;;20.20;10.32;;;;;;;7.97;84.86;93859.91;2034848;70;20231;-81
2024/01/25 08:43:02;;;;;;;16.63;9.52;;;;;;;7.98;85.28;93864.97;2034589;70;20172;-80
2024/01/25 08:45:29;;;;;;;11.23;6.72;;;;;;;8.06;84.61;93868.50;2035150;70;20601;-77
2024/01/25 08:47:55;;;;;;;11.25;6.47;;;;;;;8.11;84.67;93867.53;2035221;70;20155;-79
2024/01/25 08:50:21;;;;;;;13.93;7.75;;;;;;;8.02;84.36;93859.72;2028881;70;20148;-78
2024/01/25 08:52:47;;;;;;;14.65;8.70;;;;;;;8.06;84.55;93874.09;2034934;70;20224;-83
2024/01/25 08:55:13;;;;;;;13.60;8.00;;;;;;;7.96;84.96;93878.78;2035247;70;20244;-79
2024/01/25 08:57:40;;;;;;;10.98;6.70;;;;;;;7.86;85.17;93886.28;2034504;70;20207;-78
2024/01/25 09:00:10;;;;;;;9.15;5.55;;;;;;;7.97;84.62;93879.53;2035245;70;20146;-77
2024/01/25 09:02:36;;;;;;;6.10;4.60;;;;;;;7.75;85.07;93879.03;2035307;70;20176;-81
2024/01/25 09:05:03;;;;;;;8.23;4.55;;;;;;;7.98;84.52;93892.25;2034638;70;20212;-78
2024/01/25 09:07:29;;;;;;;5.72;4.18;;;;;;;8.10;84.12;93896.13;2035208;70;20597;-78
2024/01/25 09:09:54;;;;;;;6.57;4.15;;;;;;;8.17;83.54;93903.03;2035284;70;20155;-78
2024/01/25 09:12:21;;;;;;;5.43;3.80;;;;;;;8.22;83.78;93902.09;2035095;70;20139;-77
2024/01/25 09:14:47;;;;;;;6.25;3.90;;;;;;;8.14;83.66;93896.50;2035147;70;20231;-78
2024/01/25 09:17:13;;;;;;;5.35;3.53;;;;;;;8.13;83.68;93904.16;2035121;70;20176;-78
2024/01/25 09:19:39;;;;;;;4.18;3.28;;;;;;;8.30;83.63;93905.59;2034520;70;20132;-82
2024/01/25 09:22:07;;;;;;;4.50;3.30;;;;;;;8.17;83.54;93917.81;2035211;70;20240;-82
2024/01/25 09:24:35;;;;;;;6.13;3.75;;;;;;;8.02;84.03;93912.25;2034452;70;20199;-82
2024/01/25 09:27:04;;;;;;;7.10;4.25;;;;;;;7.79;85.15;93918.66;2034332;70;20612;-80
2024/01/25 09:29:30;;;;;;;6.75;3.97;;;;;;;8.00;84.64;93915.59;2034773;70;20609;-79
2024/01/25 09:31:55;;;;;;;5.50;4.20;;;;;;;8.24;83.51;93930.31;2034843;70;20170;-79
2024/01/25 09:34:21;;;;;;;7.40;4.70;;;;;;;8.06;83.49;93929.41;2034532;70;20203;-79
2024/01/25 09:36:47;;;;;;;6.30;4.80;;;;;;;8.20;83.74;93929.94;2033438;70;20156;-78
2024/01/25 09:39:14;;;;;;;9.90;6.38;;;;;;;8.27;83.01;93938.34;2034829;70;20239;-78
2024/01/25 09:41:41;;;;;;;9.57;5.90;;;;;;;8.26;82.98;93942.47;2034984;70;20156;-78
2024/01/25 09:44:11;;;;;;;10.40;6.68;;;;;;;8.17;83.55;93939.50;2035073;70;20154;-77
2024/01/25 09:46:37;;;;;;;13.52;8.55;;;;;;;7.79;84.61;93943.91;2028276;70;20157;-78
2024/01/25 09:49:03;;;;;;;9.75;6.65;;;;;;;7.95;84.70;93960.69;2031251;70;20555;-78
2024/01/25 09:51:37;;;;;;;11.68;7.60;;;;;;;7.92;84.55;93950.59;2031501;70;20160;-78
2024/01/25 09:54:04;;;;;;;8.10;6.28;;;;;;;7.99;84.81;93953.38;2031159;70;20651;-78
2024/01/25 09:56:32;;;;;;;10.40;5.97;;;;;;;7.64;86.79;93949.50;2031447;70;20645;-79
2024/01/25 09:58:58;;;;;;;9.85;4.68;;;;;;;7.72;87.36;93949.50;2033016;70;20152;-79
2024/01/25 10:01:24;;;;;;;6.95;4.32;;;;;;;8.11;85.94;93948.13;2035106;70;20156;-79
2024/01/25 10:03:50;;;;;;;7.45;3.75;;;;;;;8.30;84.39;93945.63;2035151;70;20156;-79
2024/01/25 10:06:16;;;;;;;4.47;3.33;;;;;;;8.21;84.30;93946.22;2031904;70;20151;-80
2024/01/25 10:08:42;;;;;;;6.88;3.95;;;;;;;8.56;83.93;93947.22;2035039;70;20170;-79
2024/01/25 10:11:08;;;;;;;7.63;4.60;;;;;;;8.71;82.75;93959.72;2034109;70;20163;-80
2024/01/25 10:13:44;;;;;;;7.07;4.35;;;;;;;8.84;82.28;93948.97;2034134;70;20178;-80
2024/01/25 10:16:19;;;;;;;7.85;3.70;;;;;;;8.64;82.59;93953.56;2034272;70;20163;-82
2024/01/25 10:18:49;;;;;;;8.52;4.75;;;;;;;8.45;83.92;93935.69;2034332;70;20254;-79
2024/01/25 10:21:15;;;;;;;5.30;4.20;;;;;;;8.59;84.44;93923.63;2034340;70;20160;-79
2024/01/25 10:23:44;;;;;;;7.38;3.88;;;;;;;8.80;84.10;93914.94;2034309;70;20627;-78
2024/01/25 10:26:10;;;;;;;3.75;2.65;;;;;;;8.98;82.85;93915.00;2034939;70;20156;-79
2024/01/25 10:28:36;;;;;;;3.83;2.60;;;;;;;9.45;81.54;93928.16;2035054;70;20158;-78
2024/01/25 10:31:04;;;;;;;4.93;3.05;;;;;;;9.52;80.51;93937.84;2035080;70;20163;-80
2024/01/25 10:33:31;;;;;;;3.00;2.25;;;;;;;9.04;80.51;93941.56;2035038;70;20144;-80
2024/01/25 10:36:03;;;;;;;2.88;1.77;;;;;;;8.79;80.34;93915.47;2035009;70;20719;-79
2024/01/25 10:38:37;;;;;;;2.88;1.40;;;;;;;8.62;81.97;93936.53;2035073;70;20164;-78
2024/01/25 10:41:05;;;;;;;3.08;1.50;;;;;;;8.39;81.82;93939.44;2032964;70;20215;-79
2024/01/25 10:43:31;;;;;;;2.92;2.13;;;;;;;7.86;84.50;93934.72;2033448;70;20153;-79
2024/01/25 10:45:58;;;;;;;4.03;2.30;;;;;;;7.94;83.88;93940.31;2031422;70;20180;-79
2024/01/25 10:48:34;;;;;;;5.18;2.65;;;;;;;8.14;84.00;93935.75;2031555;70;20156;-79
2024/01/25 10:51:02;;;;;;;3.33;2.33;;;;;;;8.02;84.53;93935.44;2028529;70;20601;-80
2024/01/25 10:53:35;;;;;;;3.00;2.13;;;;;;;8.08;84.23;93927.56;2031438;70;20148;-79
2024/01/25 10:56:01;;;;;;;;;;;;;;;8.60;83.35;93938.41;2031474;70;20156;-79
2024/01/25 10:58:33;;;;;;;3.08;2.20;;;;;;;8.83;81.95;93939.03;2031261;70;20059;-79
2024/01/25 11:00:59;;;;;;;4.22;2.45;;;;;;;8.61;82.03;93949.09;2031416;70;20162;-79
2024/01/25 11:03:30;;;;;;;4.72;2.60;;;;;;;8.50;82.23;93957.94;2031463;70;20608;-79
2024/01/25 11:06:07;;;;;;;3.58;2.53;;;;;;;8.84;81.32;93940.56;2031328;70;20159;-79
2024/01/25 11:08:33;;;;;;;4.75;3.17;;;;;;;7.92;83.34;93916.94;2031522;70;20171;-79
2024/01/25 11:10:59;;;;;;;5.10;2.90;;;;;;;8.51;82.35;93936.97;2031288;70;20180;-79
2024/01/25 11:13:29;;;;;;;4.70;3.50;;;;;;;8.43;82.10;93949.53;2030983;70;20149;-79
2024/01/25 11:15:55;;;;;;;8.63;4.00;;;;;;;8.20;83.61;93944.72;2031310;70;20613;-79
2024/01/25 11:18:25;;;;;;;8.18;4.40;;;;;;;8.15;83.46;93928.84;2031361;70;20240;-79
2024/01/25 11:20:51;;;;;;;7.03;5.10;;;;;;;8.10;84.26;93918.56;2031393;70;20209;-79
2024/01/25 11:23:17;;;;;;;8.18;5.20;;;;;;;8.38;83.40;93923.94;2031384;70;20156;-79
2024/01/25 11:25:47;;;;;;;7.78;5.50;;;;;;;8.68;81.59;93927.91;2031182;70;20179;-80
2024/01/25 11:28:15;;;;;;;6.95;5.50;;;;;;;8.98;80.29;93923.41;2031429;70;20247;-79
2024/01/25 11:30:42;;;;;;;8.23;5.95;;;;;;;8.98;80.29;93912.19;2028204;70;20164;-79
2024/01/25 11:33:08;;;;;;;6.68;5.68;;;;;;;8.69;81.08;93901.31;2030660;70;20160;-78
2024/01/25 11:35:34;;;;;;;7.88;5.82;;;;;;;9.22;80.67;93903.03;2030837;70;20152;-78
2024/01/25 11:38:00;;;;;;;8.73;5.90;;;;;;;9.46;78.81;93889.53;2031047;70;20149;-78